createdAt,value
2023-03-30T00:02:22.579Z,11.80
2023-03-30T00:06:26.876Z,11.90
2023-03-30T00:10:30.792Z,11.90
2023-03-30T00:14:37.468Z,11.90
2023-03-30T00:18:40.979Z,12.00
2023-03-30T00:22:47.222Z,12.10
2023-03-30T00:26:50.006Z,12.10
2023-03-30T00:30:53.843Z,12.10
2023-03-30T00:34:56.704Z,12.20
2023-03-30T00:39:01.354Z,12.10
2023-03-30T00:43:07.470Z,12.00
2023-03-30T00:47:10.857Z,12.00
2023-03-30T00:51:15.029Z,12.00
2023-03-30T00:55:23.035Z,12.00
2023-03-30T00:59:27.073Z,12.00
2023-03-30T01:03:32.448Z,11.90
2023-03-30T01:07:36.866Z,11.90
2023-03-30T01:11:41.116Z,11.90
2023-03-30T01:16:01.284Z,11.80
2023-03-30T01:20:31.865Z,11.80
2023-03-30T01:25:20.522Z,11.80
2023-03-30T01:29:43.221Z,11.80
2023-03-30T01:34:03.701Z,11.90
2023-03-30T01:38:41.224Z,12.00
2023-03-30T01:42:49.468Z,12.10
2023-03-30T01:46:56.797Z,12.20
2023-03-30T01:51:06.997Z,12.40
2023-03-30T01:55:15.108Z,12.50
2023-03-30T01:59:25.201Z,12.60
2023-03-30T02:03:31.749Z,12.60
2023-03-30T02:07:38.036Z,12.70
2023-03-30T02:11:44.521Z,12.70
2023-03-30T02:15:51.415Z,12.80
2023-03-30T02:19:56.967Z,12.80
2023-03-30T02:24:01.866Z,12.80
2023-03-30T02:28:04.935Z,12.90
2023-03-30T02:32:18.122Z,12.90
2023-03-30T02:36:38.645Z,12.90
2023-03-30T02:40:48.563Z,12.90
2023-03-30T02:45:04.344Z,12.90
2023-03-30T02:49:16.986Z,12.80
2023-03-30T02:53:33.167Z,12.80
2023-03-30T02:57:46.305Z,12.80
2023-03-30T03:02:13.257Z,12.90
2023-03-30T03:06:20.414Z,12.80
2023-03-30T03:10:27.854Z,12.70
2023-03-30T03:14:30.711Z,12.70
2023-03-30T03:18:34.999Z,12.60
2023-03-30T03:22:39.383Z,12.50
2023-03-30T03:26:42.332Z,12.40
2023-03-30T03:30:45.142Z,12.40
2023-03-30T03:34:53.704Z,12.40
2023-03-30T03:38:57.959Z,12.30
2023-03-30T03:43:02.945Z,12.20
2023-03-30T03:47:05.941Z,12.20
2023-03-30T03:51:09.272Z,12.20
2023-03-30T03:55:14.266Z,12.20
2023-03-30T03:59:18.945Z,12.20
2023-03-30T04:03:23.949Z,12.10
2023-03-30T04:07:26.817Z,12.00
2023-03-30T04:11:30.993Z,12.00
2023-03-30T04:15:56.755Z,11.90
2023-03-30T04:20:18.033Z,11.90
2023-03-30T04:24:56.864Z,11.90
2023-03-30T04:29:20.668Z,12.00
2023-03-30T04:33:52.034Z,11.90
2023-03-30T04:38:22.018Z,12.00
2023-03-30T04:42:42.265Z,12.00
2023-03-30T04:46:55.199Z,11.90
2023-03-30T04:51:33.488Z,11.80
2023-03-30T04:56:08.113Z,11.60
2023-03-30T05:00:13.661Z,11.70
2023-03-30T05:04:54.822Z,11.60
2023-03-30T05:09:16.568Z,11.50
2023-03-30T05:13:52.326Z,11.40
2023-03-30T05:18:08.323Z,11.40
2023-03-30T05:22:51.317Z,11.30
2023-03-30T05:27:14.274Z,11.30
2023-03-30T05:31:37.514Z,11.30
2023-03-30T05:35:59.189Z,11.30
2023-03-30T05:40:21.773Z,11.30
2023-03-30T05:44:48.172Z,11.40
2023-03-30T05:49:06.181Z,11.40
2023-03-30T05:53:19.121Z,11.50
2023-03-30T05:57:38.271Z,11.50
2023-03-30T06:01:52.235Z,11.50
2023-03-30T06:05:55.126Z,11.60
2023-03-30T06:09:59.615Z,11.60
2023-03-30T06:14:05.660Z,11.70
2023-03-30T06:18:09.749Z,11.70
2023-03-30T06:22:16.383Z,11.80
2023-03-30T06:26:24.372Z,11.80
2023-03-30T06:30:29.342Z,11.80
2023-03-30T06:34:37.245Z,11.80
2023-03-30T06:38:41.137Z,11.80
2023-03-30T06:42:45.071Z,11.80
2023-03-30T06:46:57.562Z,11.70
2023-03-30T06:51:00.392Z,11.80
2023-03-30T06:55:06.663Z,11.70
2023-03-30T06:59:09.768Z,11.80
2023-03-30T07:03:39.676Z,11.90
2023-03-30T07:07:50.747Z,12.10
2023-03-30T07:11:56.496Z,12.20
2023-03-30T07:15:59.587Z,12.40
2023-03-30T07:20:06.280Z,12.70
2023-03-30T07:24:10.467Z,12.70
2023-03-30T07:28:14.019Z,12.70
2023-03-30T07:32:18.126Z,12.60
2023-03-30T07:36:22.580Z,12.50
2023-03-30T07:40:25.530Z,12.60
2023-03-30T07:44:30.719Z,12.50
2023-03-30T07:48:37.907Z,12.50
2023-03-30T07:52:42.177Z,12.50
2023-03-30T07:56:52.564Z,12.50
2023-03-30T08:00:56.427Z,12.50
2023-03-30T08:05:22.447Z,12.60
2023-03-30T08:09:38.465Z,12.80
2023-03-30T08:13:41.465Z,12.70
2023-03-30T08:17:44.281Z,12.90
2023-03-30T08:21:47.437Z,12.90
2023-03-30T08:25:52.878Z,13.10
2023-03-30T08:29:55.733Z,13.30
2023-03-30T08:33:58.491Z,13.40
2023-03-30T08:38:01.325Z,13.20
2023-03-30T08:42:22.805Z,13.20
2023-03-30T08:46:26.278Z,13.30
2023-03-30T08:50:32.974Z,13.40
2023-03-30T08:54:36.139Z,13.70
2023-03-30T08:58:46.321Z,13.90
2023-03-30T09:02:52.625Z,14.00
2023-03-30T09:06:58.397Z,14.30
2023-03-30T09:11:03.282Z,14.30
2023-03-30T09:15:14.342Z,14.60
2023-03-30T09:19:23.757Z,15.50
2023-03-30T09:23:29.731Z,17.50
2023-03-30T09:27:39.888Z,19.40
2023-03-30T09:31:48.593Z,20.70
2023-03-30T09:36:01.640Z,20.40
2023-03-30T09:40:19.544Z,19.60
2023-03-30T09:44:28.101Z,19.80
2023-03-30T09:48:39.491Z,19.10
2023-03-30T09:52:42.630Z,19.40
2023-03-30T09:56:47.734Z,19.00
2023-03-30T10:01:03.968Z,19.00
2023-03-30T10:05:19.545Z,20.30
2023-03-30T10:09:24.652Z,20.90
2023-03-30T10:13:32.203Z,21.40
2023-03-30T10:17:35.145Z,20.00
2023-03-30T10:21:46.951Z,19.80
2023-03-30T10:25:51.573Z,19.30
2023-03-30T10:29:54.563Z,18.60
2023-03-30T10:33:59.830Z,17.80
2023-03-30T10:38:06.604Z,17.40
2023-03-30T10:42:15.942Z,17.20
2023-03-30T10:46:22.551Z,17.00
2023-03-30T10:50:35.642Z,17.00
2023-03-30T10:54:43.358Z,16.90
2023-03-30T10:58:58.198Z,16.70
2023-03-30T11:03:08.080Z,16.60
2023-03-30T11:07:17.709Z,16.50
2023-03-30T11:11:24.745Z,16.50
2023-03-30T11:15:31.336Z,16.20
2023-03-30T11:19:40.040Z,16.00
2023-03-30T11:23:46.599Z,15.70
2023-03-30T11:27:56.346Z,15.50
2023-03-30T11:32:15.502Z,15.30
2023-03-30T11:36:22.578Z,15.10
2023-03-30T11:40:27.484Z,14.80
2023-03-30T11:44:32.351Z,14.80
2023-03-30T11:48:51.262Z,14.50
2023-03-30T11:53:07.542Z,14.20
2023-03-30T11:57:24.141Z,14.00
2023-03-30T12:01:50.720Z,13.80
2023-03-30T12:05:57.991Z,13.60
2023-03-30T12:10:06.016Z,13.50
2023-03-30T12:14:34.236Z,13.40
2023-03-30T12:18:43.728Z,13.30
2023-03-30T12:22:50.053Z,13.20
2023-03-30T12:27:04.647Z,13.00
2023-03-30T12:31:09.154Z,13.00
2023-03-30T12:35:45.306Z,13.20
2023-03-30T12:39:55.415Z,13.30
2023-03-30T12:44:18.849Z,13.40
2023-03-30T12:48:33.713Z,13.20
2023-03-30T12:52:48.181Z,13.10
2023-03-30T12:56:59.582Z,12.90
2023-03-30T13:01:28.251Z,12.90
2023-03-30T13:05:34.444Z,12.80
2023-03-30T13:09:54.539Z,12.80
2023-03-30T13:14:00.912Z,12.70
2023-03-30T13:18:05.902Z,12.70
2023-03-30T13:22:25.837Z,12.60
2023-03-30T13:26:35.045Z,12.70
2023-03-30T13:30:39.911Z,12.80
2023-03-30T13:35:05.426Z,12.90
2023-03-30T13:39:16.350Z,12.90
2023-03-30T13:43:26.642Z,12.70
2023-03-30T13:47:45.072Z,12.60
2023-03-30T13:51:49.431Z,12.70
2023-03-30T13:55:52.278Z,12.50
2023-03-30T14:00:08.128Z,12.60
2023-03-30T14:04:15.322Z,12.70
2023-03-30T14:08:18.196Z,12.70
2023-03-30T14:12:21.594Z,12.70
2023-03-30T14:16:26.739Z,12.60
2023-03-30T14:20:47.060Z,12.70
2023-03-30T14:24:58.163Z,12.70
2023-03-30T14:29:03.690Z,12.50
2023-03-30T14:33:08.551Z,12.50
2023-03-30T14:37:13.459Z,12.70
2023-03-30T14:41:19.354Z,12.70
2023-03-30T14:45:22.071Z,12.90
2023-03-30T14:49:27.366Z,12.90
2023-03-30T14:53:32.163Z,13.10
2023-03-30T14:57:38.771Z,13.20
2023-03-30T15:01:44.061Z,13.20
2023-03-30T15:05:47.117Z,13.00
2023-03-30T15:09:57.409Z,13.00
2023-03-30T15:14:04.981Z,13.00
2023-03-30T15:18:08.673Z,12.90
2023-03-30T15:22:18.399Z,12.90
2023-03-30T15:26:23.045Z,12.80
2023-03-30T15:30:30.779Z,12.90
2023-03-30T15:34:33.978Z,12.80
2023-03-30T15:38:46.558Z,13.00
2023-03-30T15:42:50.683Z,13.10
2023-03-30T15:46:57.266Z,13.10
2023-03-30T15:51:04.282Z,13.00
2023-03-30T15:55:19.037Z,13.00
2023-03-30T15:59:28.734Z,13.10
2023-03-30T16:03:41.188Z,13.20
2023-03-30T16:07:43.963Z,13.40
2023-03-30T16:11:47.455Z,13.50
2023-03-30T16:15:52.821Z,13.70
2023-03-30T16:19:55.774Z,13.60
2023-03-30T16:23:58.446Z,13.50
2023-03-30T16:28:01.172Z,13.50
2023-03-30T16:32:05.819Z,13.30
2023-03-30T16:36:13.061Z,13.20
2023-03-30T16:40:26.659Z,13.10
2023-03-30T16:44:29.476Z,13.10
2023-03-30T16:48:33.877Z,13.00
2023-03-30T16:52:36.670Z,12.90
2023-03-30T16:56:39.540Z,12.90
2023-03-30T17:00:44.337Z,12.80
2023-03-30T17:04:48.476Z,12.70
2023-03-30T17:08:51.862Z,12.80
2023-03-30T17:12:55.626Z,12.70
2023-03-30T17:16:58.460Z,12.70
2023-03-30T17:21:03.835Z,12.70
2023-03-30T17:25:07.746Z,12.70
2023-03-30T17:29:11.165Z,12.60
2023-03-30T17:33:14.114Z,12.70
2023-03-30T17:37:18.461Z,12.70
2023-03-30T17:41:21.779Z,12.70
2023-03-30T17:45:27.016Z,12.50
2023-03-30T17:49:29.951Z,12.50
2023-03-30T17:53:34.578Z,12.40
2023-03-30T17:57:37.468Z,12.50
2023-03-30T18:01:40.443Z,12.40
2023-03-30T18:05:44.261Z,12.50
2023-03-30T18:09:48.441Z,12.30
2023-03-30T18:13:53.558Z,12.40
2023-03-30T18:17:57.995Z,12.20
2023-03-30T18:22:00.779Z,12.30
2023-03-30T18:26:11.207Z,12.10
2023-03-30T18:30:26.290Z,12.10
2023-03-30T18:34:29.054Z,12.10
2023-03-30T18:38:33.176Z,12.10
2023-03-30T18:42:39.246Z,12.20
2023-03-30T18:46:42.227Z,12.30
2023-03-30T18:50:46.499Z,12.20
2023-03-30T18:54:49.340Z,12.20
2023-03-30T18:58:53.498Z,12.10
2023-03-30T19:02:57.811Z,11.90
2023-03-30T19:07:01.281Z,12.00
2023-03-30T19:11:04.053Z,11.90
2023-03-30T19:15:12.592Z,11.90
2023-03-30T19:19:15.858Z,11.80
2023-03-30T19:23:21.470Z,11.60
2023-03-30T19:27:24.324Z,11.70
2023-03-30T19:31:28.500Z,11.50
2023-03-30T19:35:31.637Z,11.50
2023-03-30T19:39:34.534Z,11.50
2023-03-30T19:43:37.341Z,11.50
2023-03-30T19:47:43.600Z,11.50
2023-03-30T19:51:47.913Z,11.70
2023-03-30T19:55:50.884Z,11.50
2023-03-30T19:59:53.733Z,11.70
2023-03-30T20:03:59.440Z,11.70
2023-03-30T20:08:07.957Z,11.70
2023-03-30T20:12:13.544Z,11.40
2023-03-30T20:16:21.025Z,11.50
2023-03-30T20:20:26.205Z,11.40
2023-03-30T20:24:28.991Z,11.50
2023-03-30T20:28:32.291Z,11.50
2023-03-30T20:32:35.605Z,11.40
2023-03-30T20:36:40.489Z,11.40
2023-03-30T20:40:43.432Z,11.60
2023-03-30T20:44:50.076Z,11.50
2023-03-30T20:48:54.879Z,11.40
2023-03-30T20:52:59.029Z,11.40
2023-03-30T20:57:01.950Z,11.40
2023-03-30T21:01:16.577Z,11.30
2023-03-30T21:05:19.403Z,11.30
2023-03-30T21:09:24.208Z,11.20
2023-03-30T21:13:27.681Z,11.20
2023-03-30T21:17:30.505Z,11.20
2023-03-30T21:21:34.894Z,11.10
2023-03-30T21:25:42.609Z,11.10
2023-03-30T21:29:45.693Z,11.10
2023-03-30T21:33:48.476Z,11.00
2023-03-30T21:37:51.258Z,11.00
2023-03-30T21:41:55.589Z,10.90
2023-03-30T21:46:00.162Z,10.80
2023-03-30T21:50:03.173Z,10.80
2023-03-30T21:54:06.239Z,10.70
2023-03-30T21:58:10.385Z,10.70
2023-03-30T22:02:13.267Z,10.50
2023-03-30T22:06:17.269Z,10.50
2023-03-30T22:10:20.372Z,10.40
2023-03-30T22:14:24.545Z,10.30
2023-03-30T22:18:27.336Z,10.20
2023-03-30T22:22:30.361Z,10.20
2023-03-30T22:26:33.594Z,10.20
2023-03-30T22:30:42.132Z,10.10
2023-03-30T22:34:44.916Z,10.10
2023-03-30T22:38:48.082Z,9.90
2023-03-30T22:42:50.856Z,10.00
2023-03-30T22:46:55.023Z,9.50
2023-03-30T22:51:02.002Z,9.60
2023-03-30T22:55:05.459Z,9.50
2023-03-30T22:59:08.255Z,9.60
2023-03-30T23:03:12.582Z,9.60
2023-03-30T23:07:15.844Z,9.70
2023-03-30T23:11:21.437Z,9.70
2023-03-30T23:15:24.231Z,9.70
2023-03-30T23:19:29.269Z,9.60
2023-03-30T23:23:32.090Z,9.60
2023-03-30T23:27:34.954Z,9.60
2023-03-30T23:31:37.894Z,9.50
2023-03-30T23:35:49.274Z,9.40
2023-03-30T23:39:52.118Z,9.30
2023-03-30T23:43:54.895Z,9.30
2023-03-30T23:47:57.770Z,9.30
2023-03-30T23:52:01.976Z,9.10
2023-03-30T23:56:06.283Z,9.10
